createdAt,value
2022-08-05T00:01:20.986Z,6.07
2022-08-05T00:04:08.321Z,5.93
2022-08-05T00:06:43.321Z,6.43
2022-08-05T00:09:19.852Z,6.10
2022-08-05T00:12:00.023Z,6.18
2022-08-05T00:14:36.695Z,5.97
2022-08-05T00:17:19.502Z,5.65
2022-08-05T00:20:02.634Z,6.38
2022-08-05T00:22:38.209Z,6.68
2022-08-05T00:25:21.377Z,6.80
2022-08-05T00:27:57.231Z,6.13
2022-08-05T00:30:32.054Z,6.15
2022-08-05T00:33:06.971Z,6.60
2022-08-05T00:36:15.223Z,6.03
2022-08-05T00:38:49.039Z,6.15
2022-08-05T00:44:30.706Z,6.40
2022-08-05T00:47:06.903Z,6.30
2022-08-05T00:49:51.674Z,6.40
2022-08-05T00:52:30.042Z,6.55
2022-08-05T00:55:05.359Z,6.35
2022-08-05T00:57:58.569Z,6.25
2022-08-05T01:00:34.452Z,5.97
2022-08-05T01:03:09.381Z,6.30
2022-08-05T01:05:44.276Z,6.85
2022-08-05T01:08:41.698Z,6.68
2022-08-05T01:11:21.889Z,6.50
2022-08-05T01:14:08.848Z,6.53
2022-08-05T01:16:46.929Z,6.60
2022-08-05T01:19:30.422Z,6.45
2022-08-05T01:22:46.969Z,6.53
2022-08-05T01:25:43.320Z,6.65
2022-08-05T01:28:34.282Z,6.10
2022-08-05T01:31:12.909Z,6.38
2022-08-05T01:33:53.473Z,6.18
2022-08-05T01:36:30.278Z,5.78
2022-08-05T01:39:04.672Z,6.72
2022-08-05T01:41:44.442Z,6.50
2022-08-05T01:44:23.157Z,7.20
2022-08-05T01:47:09.849Z,6.50
2022-08-05T01:50:01.494Z,6.47
2022-08-05T01:52:38.343Z,6.72
2022-08-05T01:55:14.976Z,6.78
2022-08-05T01:58:09.944Z,6.50
2022-08-05T02:00:52.360Z,6.22
2022-08-05T02:03:31.970Z,6.07
2022-08-05T02:06:36.980Z,6.45
2022-08-05T02:09:07.804Z,6.28
2022-08-05T02:11:47.018Z,6.15
2022-08-05T02:14:25.184Z,6.20
2022-08-05T02:17:07.421Z,6.13
2022-08-05T02:19:49.279Z,6.47
2022-08-05T02:22:27.441Z,5.90
2022-08-05T02:25:05.055Z,6.15
2022-08-05T02:27:58.378Z,6.80
2022-08-05T02:30:54.099Z,6.55
2022-08-05T02:33:35.935Z,5.60
2022-08-05T02:36:16.685Z,6.75
2022-08-05T02:38:53.515Z,6.63
2022-08-05T02:41:42.806Z,7.07
2022-08-05T02:44:14.350Z,6.75
2022-08-05T02:46:58.453Z,6.50
2022-08-05T02:49:37.734Z,7.45
2022-08-05T02:52:29.354Z,6.45
2022-08-05T02:55:08.581Z,7.20
2022-08-05T02:58:09.833Z,7.45
2022-08-05T03:00:40.334Z,7.28
2022-08-05T03:03:20.345Z,6.82
2022-08-05T03:06:53.942Z,6.97
2022-08-05T03:08:55.888Z,7.15
2022-08-05T03:11:55.096Z,7.00
2022-08-05T03:14:25.055Z,7.15
2022-08-05T03:17:05.059Z,7.00
2022-08-05T03:19:45.727Z,6.35
2022-08-05T03:22:32.202Z,6.65
2022-08-05T03:25:31.586Z,7.30
2022-08-05T03:28:04.330Z,6.85
2022-08-05T03:30:41.186Z,6.30
2022-08-05T03:33:20.408Z,7.55
2022-08-05T03:35:58.375Z,7.82
2022-08-05T03:38:37.387Z,7.85
2022-08-05T03:41:15.452Z,7.40
2022-08-05T03:44:08.167Z,7.05
2022-08-05T03:46:46.986Z,6.70
2022-08-05T03:49:24.105Z,6.80
2022-08-05T03:52:37.323Z,8.30
2022-08-05T03:56:01.329Z,6.75
2022-08-05T03:58:01.089Z,6.60
2022-08-05T04:00:35.284Z,6.30
2022-08-05T04:03:14.820Z,6.80
2022-08-05T04:06:01.043Z,7.23
2022-08-05T04:08:37.990Z,7.22
2022-08-05T04:11:11.358Z,7.10
2022-08-05T04:13:53.413Z,7.00
2022-08-05T04:16:32.451Z,8.25
2022-08-05T04:19:10.649Z,7.15
2022-08-05T04:22:09.390Z,7.45
2022-08-05T04:24:44.173Z,6.78
2022-08-05T04:27:19.155Z,6.40
2022-08-05T04:29:56.722Z,7.38
2022-08-05T04:32:33.415Z,6.60
2022-08-05T04:35:17.703Z,6.47
2022-08-05T04:38:02.724Z,7.03
2022-08-05T04:40:47.924Z,6.60
2022-08-05T04:43:24.507Z,6.85
2022-08-05T04:46:05.118Z,7.07
2022-08-05T04:48:40.152Z,6.30
2022-08-05T04:51:18.519Z,6.60
2022-08-05T04:53:57.973Z,6.10
2022-08-05T04:56:37.286Z,6.07
2022-08-05T04:59:22.151Z,6.80
2022-08-05T05:02:36.283Z,6.75
2022-08-05T05:05:17.002Z,6.32
2022-08-05T05:08:02.015Z,6.80
2022-08-05T05:10:55.776Z,6.35
2022-08-05T05:13:32.380Z,6.32
2022-08-05T05:16:19.786Z,5.68
2022-08-05T05:19:17.784Z,7.05
2022-08-05T05:21:52.494Z,6.30
2022-08-05T05:24:58.399Z,7.05
2022-08-05T05:27:24.790Z,6.63
2022-08-05T05:30:31.341Z,6.50
2022-08-05T05:33:17.169Z,6.35
2022-08-05T05:35:55.499Z,6.23
2022-08-05T05:38:32.526Z,6.28
2022-08-05T05:41:08.662Z,6.25
2022-08-05T05:43:57.193Z,7.10
2022-08-05T05:46:33.929Z,6.57
2022-08-05T05:49:23.148Z,7.07
2022-08-05T05:52:05.918Z,6.90
2022-08-05T05:54:50.255Z,5.93
2022-08-05T05:57:25.970Z,5.97
2022-08-05T06:00:19.987Z,6.40
2022-08-05T06:02:54.774Z,6.75
2022-08-05T06:05:29.510Z,6.78
2022-08-05T06:08:10.696Z,6.57
2022-08-05T06:10:49.147Z,6.43
2022-08-05T06:13:27.354Z,6.38
2022-08-05T06:16:29.029Z,6.15
2022-08-05T06:19:07.352Z,6.70
2022-08-05T06:21:49.641Z,5.80
2022-08-05T06:24:27.467Z,6.00
2022-08-05T06:27:02.291Z,6.65
2022-08-05T06:29:46.908Z,6.78
2022-08-05T06:32:29.079Z,7.00
2022-08-05T06:35:15.476Z,6.00
2022-08-05T06:38:11.348Z,6.38
2022-08-05T06:40:49.390Z,6.00
2022-08-05T06:43:59.723Z,7.13
2022-08-05T06:46:20.796Z,6.38
2022-08-05T06:48:58.986Z,6.15
2022-08-05T06:51:35.411Z,6.40
2022-08-05T06:54:19.290Z,5.90
2022-08-05T06:58:03.355Z,6.20
2022-08-05T07:00:01.585Z,5.97
2022-08-05T07:02:37.816Z,6.72
2022-08-05T07:05:20.061Z,5.60
2022-08-05T07:07:57.242Z,6.40
2022-08-05T07:10:36.051Z,6.38
2022-08-05T07:13:46.356Z,5.70
2022-08-05T07:18:01.977Z,5.45
2022-08-05T07:20:16.686Z,6.00
2022-08-05T07:22:27.793Z,5.65
2022-08-05T07:25:22.994Z,5.35
2022-08-05T07:28:05.917Z,5.95
2022-08-05T07:30:50.461Z,5.57
2022-08-05T07:33:37.168Z,6.03
2022-08-05T07:36:20.901Z,6.00
2022-08-05T07:38:56.887Z,6.80
2022-08-05T07:42:12.961Z,5.38
2022-08-05T07:44:26.115Z,5.75
2022-08-05T07:47:10.156Z,5.32
2022-08-05T07:49:54.651Z,6.35
2022-08-05T07:52:30.717Z,6.10
2022-08-05T07:55:44.456Z,6.07
2022-08-05T07:58:03.245Z,5.18
2022-08-05T08:00:39.972Z,5.68
2022-08-05T08:03:17.778Z,5.00
2022-08-05T08:05:57.177Z,5.85
2022-08-05T08:08:33.152Z,5.15
2022-08-05T08:14:00.785Z,4.82
2022-08-05T08:16:51.183Z,5.15
2022-08-05T08:20:10.719Z,5.70
2022-08-05T08:22:29.796Z,6.07
2022-08-05T08:25:15.743Z,6.00
2022-08-05T08:27:51.767Z,5.25
2022-08-05T08:30:40.886Z,5.30
2022-08-05T08:36:37.510Z,4.40
2022-08-05T08:38:58.662Z,4.35
2022-08-05T08:41:51.092Z,4.82
2022-08-05T08:45:17.127Z,5.38
2022-08-05T08:48:06.656Z,5.00
2022-08-05T08:50:31.131Z,4.70
2022-08-05T08:53:19.766Z,4.70
2022-08-05T08:56:03.731Z,4.32
2022-08-05T08:58:47.458Z,4.95
2022-08-05T09:01:24.775Z,4.72
2022-08-05T09:04:00.737Z,4.10
2022-08-05T09:06:36.901Z,3.97
2022-08-05T09:09:14.584Z,4.20
2022-08-05T09:11:50.955Z,4.75
2022-08-05T09:14:56.816Z,4.63
2022-08-05T09:17:40.516Z,4.05
2022-08-05T09:20:36.243Z,3.85
2022-08-05T09:23:18.821Z,3.90
2022-08-05T09:26:10.908Z,3.63
2022-08-05T09:28:56.498Z,4.57
2022-08-05T09:32:41.002Z,4.20
2022-08-05T09:34:27.036Z,4.57
2022-08-05T09:37:01.978Z,4.50
2022-08-05T09:39:45.723Z,4.28
2022-08-05T09:42:28.402Z,4.38
2022-08-05T09:45:17.625Z,4.35
2022-08-05T09:48:04.297Z,4.10
2022-08-05T09:50:44.866Z,3.90
2022-08-05T09:53:25.782Z,4.03
2022-08-05T09:56:12.843Z,3.75
2022-08-05T09:59:00.433Z,3.58
2022-08-05T10:01:45.799Z,4.07
2022-08-05T10:04:28.521Z,4.10
2022-08-05T10:07:21.060Z,3.92
2022-08-05T10:10:13.738Z,3.63
2022-08-05T10:12:50.675Z,3.75
2022-08-05T10:15:29.868Z,3.72
2022-08-05T10:18:14.394Z,3.20
2022-08-05T10:20:52.998Z,3.42
2022-08-05T10:23:50.909Z,3.60
2022-08-05T10:26:31.544Z,3.30
2022-08-05T10:29:06.731Z,3.58
2022-08-05T10:32:53.843Z,3.53
2022-08-05T10:34:42.712Z,3.20
2022-08-05T10:37:26.708Z,3.38
2022-08-05T10:40:28.124Z,3.08
2022-08-05T10:43:12.907Z,3.60
2022-08-05T10:45:56.603Z,3.40
2022-08-05T10:48:56.656Z,3.70
2022-08-05T10:51:57.577Z,3.05
2022-08-05T10:54:56.122Z,3.38
2022-08-05T10:57:32.073Z,3.20
2022-08-05T11:00:18.600Z,3.10
2022-08-05T11:03:25.950Z,2.45
2022-08-05T11:06:15.558Z,2.55
2022-08-05T11:08:51.529Z,3.20
2022-08-05T11:11:52.751Z,3.00
2022-08-05T11:14:49.355Z,2.72
2022-08-05T11:17:57.194Z,2.90
2022-08-05T11:20:38.947Z,2.97
2022-08-05T11:24:03.875Z,2.60
2022-08-05T11:26:33.527Z,2.90
2022-08-05T11:29:14.334Z,2.87
2022-08-05T11:31:56.417Z,2.78
2022-08-05T11:34:51.969Z,2.63
2022-08-05T11:38:29.891Z,2.55
2022-08-05T11:40:40.690Z,2.70
2022-08-05T11:44:06.575Z,3.00
2022-08-05T11:46:32.808Z,3.00
2022-08-05T11:49:10.113Z,2.50
2022-08-05T11:51:49.474Z,2.80
2022-08-05T11:54:33.471Z,2.40
2022-08-05T11:57:24.234Z,2.55
2022-08-05T12:00:00.677Z,3.28
2022-08-05T12:05:17.797Z,3.05
2022-08-05T12:08:07.567Z,2.90
2022-08-05T12:10:46.293Z,2.15
2022-08-05T12:13:47.547Z,2.70
2022-08-05T12:16:27.022Z,2.00
2022-08-05T12:19:08.357Z,2.53
2022-08-05T12:21:48.172Z,2.35
2022-08-05T12:24:24.647Z,2.22
2022-08-05T12:27:00.085Z,2.00
2022-08-05T12:29:45.133Z,2.40
2022-08-05T12:32:32.274Z,2.20
2022-08-05T12:35:10.423Z,2.30
2022-08-05T12:37:45.101Z,2.90
2022-08-05T12:40:26.802Z,2.55
2022-08-05T12:43:06.647Z,2.10
2022-08-05T12:45:49.659Z,2.10
2022-08-05T12:48:32.300Z,2.53
2022-08-05T12:52:10.685Z,2.03
2022-08-05T12:54:16.923Z,2.10
2022-08-05T12:56:59.847Z,2.05
2022-08-05T13:00:08.655Z,2.40
2022-08-05T13:02:32.281Z,2.60
2022-08-05T13:05:12.487Z,2.13
2022-08-05T13:07:59.686Z,2.22
2022-08-05T13:10:35.594Z,1.92
2022-08-05T13:14:06.132Z,2.30
2022-08-05T13:16:25.146Z,1.90
2022-08-05T13:19:01.759Z,2.80
2022-08-05T13:21:38.015Z,2.00
2022-08-05T13:24:31.323Z,2.58
2022-08-05T13:27:37.489Z,2.10
2022-08-05T13:30:33.536Z,2.28
2022-08-05T13:33:06.424Z,2.28
2022-08-05T13:35:50.410Z,2.20
2022-08-05T13:41:09.325Z,1.90
2022-08-05T13:43:54.907Z,2.40
2022-08-05T13:46:50.597Z,2.30
2022-08-05T13:49:23.386Z,2.05
2022-08-05T13:51:57.670Z,1.60
2022-08-05T13:54:32.799Z,2.30
2022-08-05T13:57:10.797Z,2.20
2022-08-05T13:59:57.296Z,2.10
2022-08-05T14:02:34.665Z,1.80
2022-08-05T14:05:19.404Z,2.25
2022-08-05T14:08:11.372Z,2.00
2022-08-05T14:11:03.439Z,1.90
2022-08-05T14:13:55.093Z,2.13
2022-08-05T14:16:33.352Z,1.90
2022-08-05T14:19:11.216Z,1.95
2022-08-05T14:24:40.304Z,2.13
2022-08-05T14:27:28.239Z,2.40
2022-08-05T14:30:20.429Z,2.17
2022-08-05T14:32:56.765Z,1.90
2022-08-05T14:35:37.103Z,1.80
2022-08-05T14:38:31.935Z,2.30
2022-08-05T14:41:09.201Z,2.10
2022-08-05T14:44:00.145Z,2.05
2022-08-05T14:46:42.700Z,2.35
2022-08-05T14:49:19.395Z,2.03
2022-08-05T14:51:55.733Z,1.90
2022-08-05T14:54:33.843Z,2.25
2022-08-05T14:57:09.694Z,2.40
2022-08-05T14:59:46.558Z,2.00
2022-08-05T15:02:26.846Z,2.13
2022-08-05T15:05:08.736Z,2.10
2022-08-05T15:08:11.379Z,2.22
2022-08-05T15:10:47.017Z,1.63
2022-08-05T15:13:44.846Z,2.40
2022-08-05T15:16:18.859Z,1.70
2022-08-05T15:18:57.157Z,2.00
2022-08-05T15:21:35.813Z,2.30
2022-08-05T15:26:46.090Z,2.20
2022-08-05T15:29:29.742Z,2.30
2022-08-05T15:32:08.305Z,2.20
2022-08-05T15:34:45.648Z,2.13
2022-08-05T15:38:33.466Z,2.20
2022-08-05T15:40:58.404Z,2.38
2022-08-05T15:43:20.039Z,2.33
2022-08-05T15:46:00.161Z,1.85
2022-08-05T15:48:34.633Z,2.10
2022-08-05T15:51:12.784Z,2.30
2022-08-05T15:53:50.930Z,1.92
2022-08-05T15:56:30.628Z,1.97
2022-08-05T15:59:05.878Z,2.05
2022-08-05T16:01:40.687Z,2.15
2022-08-05T16:04:27.734Z,2.00
2022-08-05T16:07:06.154Z,2.10
2022-08-05T16:09:45.723Z,2.15
2022-08-05T16:12:23.809Z,2.20
2022-08-05T16:14:59.309Z,1.77
2022-08-05T16:17:35.294Z,2.33
2022-08-05T16:20:11.621Z,2.25
2022-08-05T16:22:49.923Z,2.08
2022-08-05T16:25:34.204Z,2.97
2022-08-05T16:28:10.388Z,2.03
2022-08-05T16:30:45.578Z,2.50
2022-08-05T16:33:21.690Z,2.53
2022-08-05T16:35:56.415Z,2.30
2022-08-05T16:38:33.605Z,2.25
2022-08-05T16:42:12.289Z,2.17
2022-08-05T16:44:01.662Z,2.60
2022-08-05T16:46:34.753Z,2.40
2022-08-05T16:49:12.877Z,2.20
